Time;durP1;ratioP1;P1;durP2;ratioP2;P2;SDS_P1;SDS_P2;PMS_P1;PMS_P2;Temp;Humidity;BMP_temperature;BMP_pressure;BME280_temperature;BME280_humidity;BME280_pressure;Samples;Min_cycle;Max_cycle;Signal;HPM_P1;HPM_P2
2022/05/20 00:02:13;;;;;;;23.10;21.17;;;;;;;;;;5017437;28;20303;-72
2022/05/20 00:04:39;;;;;;;21.83;20.02;;;;;;;;;;4991893;28;20236;-73
2022/05/20 00:07:04;;;;;;;22.17;20.38;;;;;;;;;;4963780;28;20229;-74
2022/05/20 00:09:32;;;;;;;23.40;21.52;;;;;;;;;;4993929;28;20635;-75
2022/05/20 00:12:04;;;;;;;23.40;21.35;;;;;;;;;;5018742;28;20228;-73
2022/05/20 00:14:33;;;;;;;22.52;20.73;;;;;;;;;;5003487;28;20237;-74
2022/05/20 00:17:05;;;;;;;24.80;22.58;;;;;;;;;;5000956;28;20234;-74
2022/05/20 00:19:31;;;;;;;25.63;23.15;;;;;;;;;;4985875;28;20232;-74
2022/05/20 00:22:01;;;;;;;24.23;22.23;;;;;;;;;;4993126;28;20302;-74
2022/05/20 00:24:29;;;;;;;25.08;22.90;;;;;;;;;;4990659;28;20222;-73
2022/05/20 00:26:56;;;;;;;24.48;22.25;;;;;;;;;;4994536;28;20224;-74
2022/05/20 00:29:24;;;;;;;24.67;22.58;;;;;;;;;;4991518;28;20722;-75
2022/05/20 00:31:50;;;;;;;24.98;22.92;;;;;;;;;;4974450;28;20323;-74
2022/05/20 00:34:18;;;;;;;25.20;23.08;;;;;;;;;;4995112;28;20221;-73
2022/05/20 00:36:46;;;;;;;26.95;24.65;;;;;;;;;;4996263;28;20224;-72
2022/05/20 00:39:11;;;;;;;25.23;23.05;;;;;;;;;;4987739;28;20264;-74
2022/05/20 00:41:36;;;;;;;26.13;23.73;;;;;;;;;;4993360;28;20244;-74
2022/05/20 00:44:05;;;;;;;24.98;22.67;;;;;;;;;;4994337;28;20245;-73
2022/05/20 00:46:35;;;;;;;26.23;24.02;;;;;;;;;;5003414;28;20213;-74
2022/05/20 00:49:05;;;;;;;26.05;23.65;;;;;;;;;;5018659;28;20232;-73
2022/05/20 00:51:38;;;;;;;26.02;23.75;;;;;;;;;;5002649;28;20678;-73
2022/05/20 00:54:08;;;;;;;25.60;23.45;;;;;;;;;;4988461;28;20231;-74
2022/05/20 00:56:42;;;;;;;27.08;24.65;;;;;;;;;;4990542;28;20615;-74
2022/05/20 00:59:13;;;;;;;27.50;25.00;;;;;;;;;;4975139;28;20264;-74
2022/05/20 01:01:41;;;;;;;27.08;24.83;;;;;;;;;;4989862;28;20226;-73
2022/05/20 01:04:06;;;;;;;28.80;26.30;;;;;;;;;;4993211;28;20224;-73
2022/05/20 01:06:32;;;;;;;28.75;26.13;;;;;;;;;;4978927;28;20228;-74
2022/05/20 01:08:57;;;;;;;28.13;25.60;;;;;;;;;;4986322;28;20250;-74
2022/05/20 01:11:23;;;;;;;27.58;25.10;;;;;;;;;;4994623;28;20702;-73
2022/05/20 01:13:53;;;;;;;27.80;25.23;;;;;;;;;;4988650;28;20277;-73
2022/05/20 01:16:21;;;;;;;26.95;24.40;;;;;;;;;;4990457;28;20247;-73
2022/05/20 01:18:53;;;;;;;26.75;24.25;;;;;;;;;;4985785;28;20232;-73
2022/05/20 01:21:19;;;;;;;26.90;24.33;;;;;;;;;;4974214;28;20314;-72
2022/05/20 01:23:46;;;;;;;28.00;25.38;;;;;;;;;;4970278;28;20224;-74
2022/05/20 01:26:14;;;;;;;28.42;25.63;;;;;;;;;;5006972;28;20239;-72
2022/05/20 01:28:42;;;;;;;30.58;27.58;;;;;;;;;;5013810;28;20224;-72
2022/05/20 01:31:13;;;;;;;30.20;27.42;;;;;;;;;;4997470;28;20231;-71
2022/05/20 01:33:49;;;;;;;30.15;27.45;;;;;;;;;;5006945;28;20224;-74
2022/05/20 01:36:22;;;;;;;30.88;28.10;;;;;;;;;;4992070;28;20247;-73
2022/05/20 01:38:48;;;;;;;29.38;26.88;;;;;;;;;;4976392;28;20231;-73
2022/05/20 01:41:42;;;;;;;29.60;26.90;;;;;;;;;;4970914;28;20231;-74
2022/05/20 01:44:17;;;;;;;30.83;28.10;;;;;;;;;;4983301;28;20973;-74
2022/05/20 01:46:51;;;;;;;31.88;28.73;;;;;;;;;;4975430;28;20227;-75
2022/05/20 01:49:35;;;;;;;30.52;27.67;;;;;;;;;;5008436;28;20727;-74
2022/05/20 01:52:00;;;;;;;30.02;27.08;;;;;;;;;;4989034;28;20285;-73
2022/05/20 01:54:50;;;;;;;30.40;27.48;;;;;;;;;;5005814;28;20217;-74
2022/05/20 01:57:33;;;;;;;31.08;28.25;;;;;;;;;;5015024;28;20224;-74
2022/05/20 02:00:22;;;;;;;30.80;27.92;;;;;;;;;;4993707;28;20230;-74
2022/05/20 02:02:59;;;;;;;30.30;27.58;;;;;;;;;;5018099;28;20232;-74
2022/05/20 02:05:31;;;;;;;30.80;27.90;;;;;;;;;;5019740;28;20235;-74
2022/05/20 02:08:04;;;;;;;30.40;27.70;;;;;;;;;;4973677;28;20221;-73
2022/05/20 02:10:35;;;;;;;31.80;28.63;;;;;;;;;;4993227;28;20295;-73
2022/05/20 02:13:01;;;;;;;30.17;27.38;;;;;;;;;;5003687;28;20735;-73
2022/05/20 02:15:30;;;;;;;30.20;27.33;;;;;;;;;;4987412;28;20216;-74
2022/05/20 02:18:01;;;;;;;32.45;29.35;;;;;;;;;;4976788;28;20225;-74
2022/05/20 02:20:35;;;;;;;31.30;28.42;;;;;;;;;;4968674;28;20861;-74
2022/05/20 02:23:06;;;;;;;30.42;27.50;;;;;;;;;;4999335;28;20235;-74
2022/05/20 02:25:34;;;;;;;30.67;27.67;;;;;;;;;;4964482;28;20608;-74
2022/05/20 02:28:08;;;;;;;30.98;28.10;;;;;;;;;;4980681;28;20223;-75
2022/05/20 02:30:34;;;;;;;32.55;29.48;;;;;;;;;;5003989;28;20224;-73
2022/05/20 02:33:02;;;;;;;32.10;29.15;;;;;;;;;;4989736;28;20271;-75
2022/05/20 02:35:30;;;;;;;31.75;28.75;;;;;;;;;;5020907;28;20227;-74
2022/05/20 02:38:06;;;;;;;32.50;29.33;;;;;;;;;;4967298;28;20231;-74
2022/05/20 02:40:36;;;;;;;32.78;29.50;;;;;;;;;;4973904;28;20270;-73
2022/05/20 02:43:07;;;;;;;33.38;30.17;;;;;;;;;;5003168;28;20260;-74
2022/05/20 02:45:33;;;;;;;31.35;28.45;;;;;;;;;;4975139;28;20221;-74
2022/05/20 02:48:01;;;;;;;31.70;28.67;;;;;;;;;;4978583;28;20232;-74
2022/05/20 02:50:29;;;;;;;29.58;26.83;;;;;;;;;;4996471;28;20240;-74
2022/05/20 02:52:54;;;;;;;28.30;25.52;;;;;;;;;;5006507;28;20608;-74
2022/05/20 02:55:20;;;;;;;26.67;24.27;;;;;;;;;;5004705;28;20296;-73
2022/05/20 02:57:45;;;;;;;26.50;24.15;;;;;;;;;;4956192;28;20228;-74
2022/05/20 03:05:45;;;;;;;26.63;24.08;;;;;;;;;;4996979;28;20286;-74
2022/05/20 03:08:11;;;;;;;25.02;22.83;;;;;;;;;;4992674;28;20400;-72
2022/05/20 03:10:36;;;;;;;25.30;22.92;;;;;;;;;;4983177;28;20216;-73
2022/05/20 03:13:03;;;;;;;23.45;21.25;;;;;;;;;;4970035;28;20299;-72
2022/05/20 03:15:28;;;;;;;22.50;20.20;;;;;;;;;;4996279;28;20220;-72
2022/05/20 03:17:54;;;;;;;22.67;20.58;;;;;;;;;;4998812;28;20228;-73
2022/05/20 03:20:20;;;;;;;22.77;20.60;;;;;;;;;;5005583;28;20654;-72
2022/05/20 03:22:48;;;;;;;24.33;22.00;;;;;;;;;;5009229;28;20217;-73
2022/05/20 03:25:13;;;;;;;23.35;21.08;;;;;;;;;;5010435;28;20234;-73
2022/05/20 03:27:39;;;;;;;24.58;22.05;;;;;;;;;;4963443;28;20222;-73
2022/05/20 03:30:06;;;;;;;22.95;20.73;;;;;;;;;;4961737;28;21063;-73
2022/05/20 03:32:32;;;;;;;22.83;20.63;;;;;;;;;;5016202;28;20232;-74
2022/05/20 03:34:58;;;;;;;23.92;21.83;;;;;;;;;;4977250;28;20224;-73
2022/05/20 03:37:26;;;;;;;24.08;21.90;;;;;;;;;;5003071;28;20217;-72
2022/05/20 03:39:52;;;;;;;22.38;20.48;;;;;;;;;;4993584;28;20236;-73
2022/05/20 03:42:22;;;;;;;22.77;20.80;;;;;;;;;;4992701;28;20225;-73
2022/05/20 03:44:52;;;;;;;21.15;19.13;;;;;;;;;;4993907;28;20221;-73
2022/05/20 03:47:20;;;;;;;20.13;18.30;;;;;;;;;;4991034;28;20283;-72
2022/05/20 03:49:51;;;;;;;20.40;18.55;;;;;;;;;;4993551;28;20216;-73
2022/05/20 03:52:19;;;;;;;20.38;18.48;;;;;;;;;;4999942;28;20977;-73
2022/05/20 03:54:44;;;;;;;20.63;18.58;;;;;;;;;;4993676;28;20304;-73
2022/05/20 03:57:10;;;;;;;20.98;19.00;;;;;;;;;;4995294;28;20224;-73
2022/05/20 03:59:39;;;;;;;20.27;18.38;;;;;;;;;;5011369;28;20612;-73
2022/05/20 04:02:08;;;;;;;20.17;18.13;;;;;;;;;;5004499;28;20220;-73
2022/05/20 04:04:40;;;;;;;17.25;15.45;;;;;;;;;;4994251;28;20212;-73
2022/05/20 04:07:16;;;;;;;16.13;14.52;;;;;;;;;;5003390;28;20232;-73
2022/05/20 04:09:45;;;;;;;13.57;12.50;;;;;;;;;;5021757;28;20231;-74
2022/05/20 04:12:37;;;;;;;13.15;11.95;;;;;;;;;;4979472;28;20228;-72
2022/05/20 04:15:04;;;;;;;11.00;10.00;;;;;;;;;;4994415;28;20229;-73
2022/05/20 04:17:29;;;;;;;10.02;9.20;;;;;;;;;;5022646;28;20239;-73
2022/05/20 04:19:55;;;;;;;9.02;8.27;;;;;;;;;;5008080;28;20250;-74
2022/05/20 04:22:26;;;;;;;8.98;8.02;;;;;;;;;;5016318;28;20251;-72
2022/05/20 04:24:51;;;;;;;8.40;7.57;;;;;;;;;;5004342;28;20248;-73
2022/05/20 04:27:17;;;;;;;8.20;7.40;;;;;;;;;;4994227;28;20679;-72
2022/05/20 04:29:42;;;;;;;7.47;6.77;;;;;;;;;;5003032;28;20218;-72
2022/05/20 04:32:11;;;;;;;7.38;6.55;;;;;;;;;;4978683;28;20311;-73
2022/05/20 04:34:37;;;;;;;6.90;5.80;;;;;;;;;;4988161;28;20604;-72
2022/05/20 04:37:02;;;;;;;5.90;5.40;;;;;;;;;;4989979;28;20229;-71
2022/05/20 04:39:28;;;;;;;5.87;5.37;;;;;;;;;;5005593;28;20228;-72
2022/05/20 04:47:26;;;;;;;4.75;4.30;;;;;;;;;;5009403;28;20232;-72
2022/05/20 04:49:54;;;;;;;4.80;4.30;;;;;;;;;;4988761;28;20228;-72
2022/05/20 04:52:22;;;;;;;4.23;3.93;;;;;;;;;;4993200;28;22851;-72
2022/05/20 04:54:50;;;;;;;4.43;4.03;;;;;;;;;;4979473;28;20319;-71
2022/05/20 04:57:32;;;;;;;4.83;4.43;;;;;;;;;;5004753;28;20221;-72
2022/05/20 05:00:05;;;;;;;5.78;4.20;;;;;;;;;;5020309;28;20286;-72
2022/05/20 05:02:34;;;;;;;4.15;3.75;;;;;;;;;;5006177;28;20311;-71
2022/05/20 05:04:59;;;;;;;7.22;3.30;;;;;;;;;;5002830;28;20303;-72
2022/05/20 05:07:27;;;;;;;4.35;3.35;;;;;;;;;;4985569;28;20221;-72
2022/05/20 05:09:53;;;;;;;3.53;2.90;;;;;;;;;;4995530;28;20637;-72
2022/05/20 05:12:23;;;;;;;5.70;3.07;;;;;;;;;;5005286;28;20731;-72
2022/05/20 05:14:54;;;;;;;4.07;2.60;;;;;;;;;;4988392;28;20225;-72
2022/05/20 05:20:16;;;;;;;5.17;2.57;;;;;;;;;;4994157;28;20244;-72
2022/05/20 05:22:44;;;;;;;3.15;2.63;;;;;;;;;;5002246;28;20215;-71
2022/05/20 05:25:10;;;;;;;4.47;2.58;;;;;;;;;;4989673;28;20292;-73
2022/05/20 05:27:39;;;;;;;3.47;2.55;;;;;;;;;;5002343;28;20226;-74
2022/05/20 05:30:07;;;;;;;3.67;2.60;;;;;;;;;;5020348;28;20225;-74
2022/05/20 05:32:34;;;;;;;3.38;2.45;;;;;;;;;;5002660;28;20219;-72
2022/05/20 05:35:01;;;;;;;3.05;2.35;;;;;;;;;;5024283;28;20228;-72
2022/05/20 05:37:26;;;;;;;3.58;2.70;;;;;;;;;;5014202;28;20224;-71
2022/05/20 05:39:52;;;;;;;2.85;2.50;;;;;;;;;;4998991;28;20246;-72
2022/05/20 05:42:18;;;;;;;2.97;2.33;;;;;;;;;;5000672;28;20228;-70
2022/05/20 05:44:43;;;;;;;3.60;2.22;;;;;;;;;;4990841;28;20269;-72
2022/05/20 05:47:09;;;;;;;3.00;2.28;;;;;;;;;;5003609;28;20239;-72
2022/05/20 05:49:34;;;;;;;3.05;2.58;;;;;;;;;;5008122;28;20216;-71
2022/05/20 05:52:02;;;;;;;5.30;2.38;;;;;;;;;;5001691;28;20232;-72
2022/05/20 05:54:32;;;;;;;3.08;2.20;;;;;;;;;;5000518;28;20307;-72
2022/05/20 05:56:58;;;;;;;4.05;2.50;;;;;;;;;;5019104;28;20262;-72
2022/05/20 05:59:23;;;;;;;3.13;2.20;;;;;;;;;;4996840;28;20223;-72
2022/05/20 06:01:49;;;;;;;3.55;2.40;;;;;;;;;;4997277;28;20790;-73
2022/05/20 06:04:14;;;;;;;2.53;2.03;;;;;;;;;;4983861;28;20217;-72
2022/05/20 06:06:45;;;;;;;3.65;2.20;;;;;;;;;;4999836;28;20303;-72
2022/05/20 06:09:10;;;;;;;3.30;2.33;;;;;;;;;;5018329;28;20236;-73
2022/05/20 06:11:36;;;;;;;3.45;2.35;;;;;;;;;;5022139;28;20228;-73
2022/05/20 06:14:01;;;;;;;4.78;2.33;;;;;;;;;;4998069;28;20229;-73
2022/05/20 06:16:27;;;;;;;3.08;2.13;;;;;;;;;;5001000;28;20314;-71
2022/05/20 06:18:52;;;;;;;4.10;2.33;;;;;;;;;;5018498;28;20698;-72
2022/05/20 06:21:18;;;;;;;3.25;2.30;;;;;;;;;;4989101;28;20291;-73
2022/05/20 06:23:45;;;;;;;2.83;2.05;;;;;;;;;;4997365;28;20223;-73
2022/05/20 06:26:14;;;;;;;3.83;2.03;;;;;;;;;;4991339;28;20314;-72
2022/05/20 06:28:39;;;;;;;4.55;2.10;;;;;;;;;;5006385;28;20255;-72
2022/05/20 06:31:05;;;;;;;2.35;2.00;;;;;;;;;;4991326;28;20216;-73
2022/05/20 06:33:31;;;;;;;5.75;2.13;;;;;;;;;;5009645;28;20235;-73
2022/05/20 06:41:29;;;;;;;2.95;1.60;;;;;;;;;;4997043;28;20296;-72
2022/05/20 06:43:55;;;;;;;2.95;1.98;;;;;;;;;;4995821;28;20669;-72
2022/05/20 06:46:21;;;;;;;2.45;1.85;;;;;;;;;;4990025;28;20294;-73
2022/05/20 06:48:51;;;;;;;3.00;2.15;;;;;;;;;;4990030;28;20708;-72
2022/05/20 06:51:21;;;;;;;3.17;1.88;;;;;;;;;;5004049;28;20741;-71
2022/05/20 06:53:47;;;;;;;3.92;2.10;;;;;;;;;;4997888;28;20216;-70
2022/05/20 06:56:12;;;;;;;3.38;2.30;;;;;;;;;;5012082;28;20211;-72
2022/05/20 06:58:40;;;;;;;5.45;2.33;;;;;;;;;;5023522;28;20235;-73
2022/05/20 07:01:09;;;;;;;2.70;1.85;;;;;;;;;;4992071;28;20233;-70
2022/05/20 07:03:34;;;;;;;2.92;1.92;;;;;;;;;;5011429;28;20715;-72
2022/05/20 07:06:03;;;;;;;3.33;1.90;;;;;;;;;;4978710;28;20225;-72
2022/05/20 07:08:31;;;;;;;3.08;1.83;;;;;;;;;;4991532;28;20220;-72
2022/05/20 07:10:56;;;;;;;5.43;2.35;;;;;;;;;;5026259;28;20216;-74
2022/05/20 07:13:22;;;;;;;2.78;1.90;;;;;;;;;;4997439;28;20320;-72
2022/05/20 07:15:50;;;;;;;3.28;2.10;;;;;;;;;;4993974;28;20227;-73
2022/05/20 07:18:15;;;;;;;2.95;1.95;;;;;;;;;;5012979;28;20303;-72
2022/05/20 07:20:41;;;;;;;4.13;2.10;;;;;;;;;;4995261;28;20315;-73
2022/05/20 07:23:09;;;;;;;2.90;1.85;;;;;;;;;;5006265;28;20228;-71
2022/05/20 07:25:37;;;;;;;4.60;1.80;;;;;;;;;;5006000;28;20230;-71
2022/05/20 07:28:02;;;;;;;2.92;2.20;;;;;;;;;;4976560;28;20235;-71
2022/05/20 07:30:33;;;;;;;3.08;1.92;;;;;;;;;;4976079;28;20228;-72
2022/05/20 07:32:59;;;;;;;3.83;2.03;;;;;;;;;;4991208;28;20231;-71
2022/05/20 07:35:24;;;;;;;2.83;2.17;;;;;;;;;;4996985;28;20219;-72
2022/05/20 07:37:50;;;;;;;3.55;2.17;;;;;;;;;;4979890;28;20227;-71
2022/05/20 07:40:17;;;;;;;4.35;2.15;;;;;;;;;;4995619;28;20236;-72
2022/05/20 07:42:42;;;;;;;5.32;2.08;;;;;;;;;;4992438;28;20225;-73
2022/05/20 07:45:08;;;;;;;3.60;2.20;;;;;;;;;;5022663;28;20228;-72
2022/05/20 07:47:36;;;;;;;2.72;2.20;;;;;;;;;;4990767;28;20294;-71
2022/05/20 07:50:04;;;;;;;3.38;2.08;;;;;;;;;;4993895;28;20242;-73
2022/05/20 07:55:20;;;;;;;3.78;2.28;;;;;;;;;;4994640;28;20721;-70
2022/05/20 07:57:48;;;;;;;4.68;2.92;;;;;;;;;;4975949;28;20232;-71
2022/05/20 08:00:15;;;;;;;6.13;3.22;;;;;;;;;;4992229;28;20235;-72
2022/05/20 08:02:43;;;;;;;4.80;2.90;;;;;;;;;;5005570;28;20239;-70
2022/05/20 08:05:08;;;;;;;4.25;3.25;;;;;;;;;;4991056;28;20312;-72
2022/05/20 08:07:35;;;;;;;4.20;3.38;;;;;;;;;;4995544;28;20252;-71
2022/05/20 08:10:02;;;;;;;3.67;2.97;;;;;;;;;;5002760;28;20225;-71
2022/05/20 08:12:28;;;;;;;4.95;3.08;;;;;;;;;;4987937;28;20227;-72
2022/05/20 08:14:53;;;;;;;3.10;2.70;;;;;;;;;;5005893;28;20246;-71
2022/05/20 08:17:20;;;;;;;6.18;3.10;;;;;;;;;;4998204;28;20237;-72
2022/05/20 08:19:46;;;;;;;3.88;2.95;;;;;;;;;;4994330;28;20220;-72
2022/05/20 08:22:11;;;;;;;3.95;3.20;;;;;;;;;;4992601;28;20773;-73
2022/05/20 08:24:39;;;;;;;4.57;3.03;;;;;;;;;;5012181;28;20224;-71
2022/05/20 08:27:08;;;;;;;5.10;3.22;;;;;;;;;;5004288;28;20235;-72
2022/05/20 08:29:36;;;;;;;5.28;3.78;;;;;;;;;;4989379;28;20289;-71
2022/05/20 08:32:04;;;;;;;4.72;3.47;;;;;;;;;;5002565;28;20240;-72
2022/05/20 08:34:34;;;;;;;5.18;3.10;;;;;;;;;;4966428;28;20220;-72
2022/05/20 08:37:04;;;;;;;4.22;3.00;;;;;;;;;;5010086;28;20223;-71
2022/05/20 08:39:29;;;;;;;3.42;3.13;;;;;;;;;;4977237;28;20216;-72
2022/05/20 08:41:55;;;;;;;6.70;3.47;;;;;;;;;;4989273;28;20768;-72
2022/05/20 08:44:21;;;;;;;7.00;3.70;;;;;;;;;;4978192;28;20227;-71
2022/05/20 08:46:50;;;;;;;4.40;4.00;;;;;;;;;;5006559;28;20694;-71
2022/05/20 08:49:17;;;;;;;4.78;4.05;;;;;;;;;;4999679;28;20205;-71
2022/05/20 08:51:48;;;;;;;5.45;4.60;;;;;;;;;;4978918;28;20638;-72
2022/05/20 08:54:14;;;;;;;5.53;4.80;;;;;;;;;;5002562;28;20212;-72
2022/05/20 08:56:42;;;;;;;6.05;4.78;;;;;;;;;;5009699;28;20221;-71
2022/05/20 08:59:12;;;;;;;6.70;5.13;;;;;;;;;;4989596;28;20311;-72
2022/05/20 09:01:42;;;;;;;6.63;5.78;;;;;;;;;;4989749;28;20363;-73
2022/05/20 09:04:11;;;;;;;7.05;5.97;;;;;;;;;;4959304;28;20326;-73
2022/05/20 09:06:58;;;;;;;6.10;5.50;;;;;;;;;;4989670;28;20575;-72
2022/05/20 09:09:28;;;;;;;6.35;5.70;;;;;;;;;;5023137;28;20592;-72
2022/05/20 09:11:58;;;;;;;6.85;6.10;;;;;;;;;;4983056;28;20235;-72
2022/05/20 09:17:21;;;;;;;5.85;5.25;;;;;;;;;;5003556;28;20602;-72
2022/05/20 09:20:05;;;;;;;5.30;4.80;;;;;;;;;;4992506;28;20275;-71
2022/05/20 09:22:37;;;;;;;5.93;5.35;;;;;;;;;;4991120;28;20224;-72
2022/05/20 09:25:26;;;;;;;6.80;5.53;;;;;;;;;;4989444;28;20301;-72
2022/05/20 09:27:54;;;;;;;6.47;5.88;;;;;;;;;;4974947;28;20761;-73
2022/05/20 09:30:23;;;;;;;6.57;5.93;;;;;;;;;;4986853;28;20230;-72
2022/05/20 09:33:10;;;;;;;6.90;5.43;;;;;;;;;;4993466;28;20224;-72
2022/05/20 09:35:35;;;;;;;5.55;5.03;;;;;;;;;;5012585;28;20243;-72
2022/05/20 09:38:12;;;;;;;5.80;5.10;;;;;;;;;;5013037;28;20216;-72
2022/05/20 09:40:41;;;;;;;5.47;4.97;;;;;;;;;;4998147;28;20228;-73
2022/05/20 09:43:10;;;;;;;6.68;6.00;;;;;;;;;;4992103;28;20230;-72
2022/05/20 09:45:46;;;;;;;6.32;5.82;;;;;;;;;;5000584;28;20283;-72
2022/05/20 09:48:20;;;;;;;6.35;5.75;;;;;;;;;;4993105;28;20239;-72
2022/05/20 09:51:31;;;;;;;7.63;6.10;;;;;;;;;;4993472;28;20220;-72
2022/05/20 09:54:21;;;;;;;6.80;5.28;;;;;;;;;;4989997;28;20232;-73
2022/05/20 09:56:57;;;;;;;6.40;5.25;;;;;;;;;;5001297;28;20281;-72
2022/05/20 09:59:45;;;;;;;5.93;5.38;;;;;;;;;;4994626;28;20728;-72
2022/05/20 10:02:19;;;;;;;6.00;5.40;;;;;;;;;;5012832;28;20288;-72
2022/05/20 10:04:47;;;;;;;6.28;5.68;;;;;;;;;;5011289;28;20227;-72
2022/05/20 10:07:19;;;;;;;6.72;6.00;;;;;;;;;;5021970;28;20667;-73
2022/05/20 10:09:53;;;;;;;6.30;5.70;;;;;;;;;;4972081;28;20216;-71
2022/05/20 10:12:33;;;;;;;8.10;6.72;;;;;;;;;;4998883;28;20627;-72
2022/05/20 10:15:29;;;;;;;6.57;5.88;;;;;;;;;;4985750;28;20756;-73
2022/05/20 10:18:01;;;;;;;6.80;6.15;;;;;;;;;;5000510;28;20246;-72
2022/05/20 10:20:36;;;;;;;6.20;5.50;;;;;;;;;;5007084;28;20239;-72
2022/05/20 10:23:23;;;;;;;6.53;5.63;;;;;;;;;;5008089;28;20229;-71
2022/05/20 10:26:30;;;;;;;6.18;5.22;;;;;;;;;;4999583;28;20232;-73
2022/05/20 10:34:47;;;;;;;6.18;5.68;;;;;;;;;;4996257;28;20216;-72
2022/05/20 10:37:20;;;;;;;6.15;5.65;;;;;;;;;;5008446;28;20221;-72
2022/05/20 10:40:09;;;;;;;6.25;5.65;;;;;;;;;;4989696;28;20233;-71
2022/05/20 10:42:38;;;;;;;7.93;5.82;;;;;;;;;;5006330;28;20224;-72
2022/05/20 10:48:51;;;;;;;5.57;5.07;;;;;;;;;;4999286;28;20220;-73
2022/05/20 10:51:37;;;;;;;4.80;4.40;;;;;;;;;;5007268;28;20219;-72
2022/05/20 10:54:18;;;;;;;7.60;4.55;;;;;;;;;;5021981;28;20450;-71
2022/05/20 10:57:01;;;;;;;4.63;4.18;;;;;;;;;;5021522;28;20220;-71
2022/05/20 10:59:34;;;;;;;4.60;4.20;;;;;;;;;;5024805;28;20311;-72
2022/05/20 11:02:06;;;;;;;6.07;4.22;;;;;;;;;;5006312;28;20228;-72
2022/05/20 11:04:58;;;;;;;4.50;4.10;;;;;;;;;;4993955;28;20228;-72
2022/05/20 11:07:53;;;;;;;4.40;4.10;;;;;;;;;;5012101;28;20279;-72
2022/05/20 11:10:38;;;;;;;5.28;4.78;;;;;;;;;;4983365;28;20275;-71
2022/05/20 11:13:12;;;;;;;5.13;4.05;;;;;;;;;;5005602;28;20220;-71
2022/05/20 11:15:49;;;;;;;4.68;3.95;;;;;;;;;;5008996;28;20229;-71
2022/05/20 11:18:30;;;;;;;4.88;3.97;;;;;;;;;;5022114;28;20225;-70
2022/05/20 11:21:24;;;;;;;6.05;3.40;;;;;;;;;;5003611;28;20789;-72
2022/05/20 11:24:28;;;;;;;4.22;3.80;;;;;;;;;;5025374;28;20242;-71
2022/05/20 11:27:16;;;;;;;3.72;3.40;;;;;;;;;;4998846;28;20243;-72
2022/05/20 11:30:07;;;;;;;3.83;3.03;;;;;;;;;;5008955;28;20234;-72
2022/05/20 11:32:51;;;;;;;3.20;2.53;;;;;;;;;;4981796;28;20224;-72
2022/05/20 11:35:36;;;;;;;2.40;2.20;;;;;;;;;;5024768;28;20643;-71
2022/05/20 11:38:42;;;;;;;3.50;2.55;;;;;;;;;;5007238;28;20231;-72
2022/05/20 11:41:23;;;;;;;3.65;2.80;;;;;;;;;;5002466;28;20228;-73
2022/05/20 11:44:10;;;;;;;3.63;2.30;;;;;;;;;;5003152;28;20307;-72
2022/05/20 11:46:43;;;;;;;3.13;2.38;;;;;;;;;;4981748;28;20220;-72
2022/05/20 11:49:32;;;;;;;3.00;2.60;;;;;;;;;;5004557;28;20701;-73
2022/05/20 11:52:16;;;;;;;4.32;2.60;;;;;;;;;;5010495;28;20224;-73
2022/05/20 11:54:51;;;;;;;3.45;2.38;;;;;;;;;;4997486;28;20297;-72
2022/05/20 11:57:21;;;;;;;3.72;2.42;;;;;;;;;;5006065;28;20226;-73
2022/05/20 12:00:07;;;;;;;4.70;2.40;;;;;;;;;;4993714;28;20243;-73
2022/05/20 12:02:39;;;;;;;2.60;2.22;;;;;;;;;;4988394;28;20746;-73
2022/05/20 12:05:12;;;;;;;2.65;2.10;;;;;;;;;;4997551;28;20227;-73
2022/05/20 12:07:37;;;;;;;2.30;1.73;;;;;;;;;;4974760;28;20340;-73
2022/05/20 12:10:31;;;;;;;2.17;1.67;;;;;;;;;;5011775;28;20263;-73
2022/05/20 12:13:11;;;;;;;2.00;1.83;;;;;;;;;;5028048;28;20255;-73
2022/05/20 12:15:40;;;;;;;2.15;1.73;;;;;;;;;;5023492;28;20274;-74
2022/05/20 12:24:24;;;;;;;2.08;1.77;;;;;;;;;;4985393;28;20225;-72
2022/05/20 12:26:55;;;;;;;2.42;1.90;;;;;;;;;;4995266;28;20243;-74
2022/05/20 12:29:45;;;;;;;2.53;1.80;;;;;;;;;;4991071;28;20213;-73
2022/05/20 12:32:30;;;;;;;3.30;1.80;;;;;;;;;;4989479;28;20619;-72
2022/05/20 12:35:13;;;;;;;2.50;1.58;;;;;;;;;;5024568;28;20228;-72
2022/05/20 12:37:42;;;;;;;2.58;1.50;;;;;;;;;;5022372;28;20220;-73
2022/05/20 12:40:40;;;;;;;1.95;1.63;;;;;;;;;;5015881;28;20327;-73
2022/05/20 12:43:08;;;;;;;2.03;1.75;;;;;;;;;;5000961;28;20224;-73
2022/05/20 12:45:48;;;;;;;1.75;1.65;;;;;;;;;;4991286;28;20613;-73
2022/05/20 12:48:15;;;;;;;2.67;1.70;;;;;;;;;;5010148;28;20213;-73
2022/05/20 12:50:58;;;;;;;1.90;1.40;;;;;;;;;;4991833;28;20229;-72
2022/05/20 12:53:27;;;;;;;1.58;1.48;;;;;;;;;;5007356;28;20221;-72
2022/05/20 12:55:53;;;;;;;2.25;1.60;;;;;;;;;;4980290;28;20239;-72
2022/05/20 12:58:29;;;;;;;2.35;1.58;;;;;;;;;;5003552;28;20315;-72
2022/05/20 13:00:58;;;;;;;2.55;1.52;;;;;;;;;;5006842;28;20239;-72
2022/05/20 13:03:37;;;;;;;1.90;1.50;;;;;;;;;;4988889;28;20229;-71
2022/05/20 13:06:15;;;;;;;1.80;1.55;;;;;;;;;;5005283;28;20221;-72
2022/05/20 13:08:46;;;;;;;2.42;1.63;;;;;;;;;;4996572;28;20269;-72
2022/05/20 13:11:12;;;;;;;1.83;1.70;;;;;;;;;;4992344;28;20225;-71
2022/05/20 13:13:38;;;;;;;1.77;1.55;;;;;;;;;;4990964;28;20220;-71
2022/05/20 13:16:05;;;;;;;2.45;1.80;;;;;;;;;;4974351;28;20212;-72
2022/05/20 13:18:34;;;;;;;3.22;1.60;;;;;;;;;;4957192;28;20239;-71
2022/05/20 13:21:01;;;;;;;3.03;1.60;;;;;;;;;;4973342;28;20601;-72
2022/05/20 13:23:31;;;;;;;3.50;1.60;;;;;;;;;;4992953;28;20713;-72
2022/05/20 13:26:03;;;;;;;2.33;1.73;;;;;;;;;;4999200;28;20227;-72
2022/05/20 13:28:37;;;;;;;2.10;1.70;;;;;;;;;;5024497;28;20686;-73
2022/05/20 13:31:07;;;;;;;2.00;1.52;;;;;;;;;;4986167;28;20673;-72
2022/05/20 13:33:33;;;;;;;1.88;1.65;;;;;;;;;;4993057;28;20208;-69
2022/05/20 13:35:59;;;;;;;1.90;1.65;;;;;;;;;;4987698;28;20238;-71
2022/05/20 13:38:28;;;;;;;2.42;1.55;;;;;;;;;;4999164;28;20228;-72
2022/05/20 13:40:54;;;;;;;1.90;1.63;;;;;;;;;;5006333;28;20231;-71
2022/05/20 13:43:22;;;;;;;2.20;1.73;;;;;;;;;;5026359;28;20216;-72
2022/05/20 13:51:28;;;;;;;2.72;1.90;;;;;;;;;;4991198;28;20229;-71
2022/05/20 13:53:57;;;;;;;2.72;2.10;;;;;;;;;;5004542;28;20216;-70
2022/05/20 13:56:29;;;;;;;2.22;2.00;;;;;;;;;;4975838;28;20223;-71
2022/05/20 13:59:03;;;;;;;1.80;1.70;;;;;;;;;;5007701;28;20267;-71
2022/05/20 14:01:30;;;;;;;1.73;1.60;;;;;;;;;;4976080;28;20220;-71
2022/05/20 14:03:58;;;;;;;1.67;1.58;;;;;;;;;;4995579;28;20235;-71
2022/05/20 14:06:26;;;;;;;1.70;1.60;;;;;;;;;;4975802;28;20216;-71
2022/05/20 14:08:54;;;;;;;3.28;1.70;;;;;;;;;;4989456;28;20225;-71
2022/05/20 14:11:37;;;;;;;1.92;1.40;;;;;;;;;;4991096;28;20221;-72
2022/05/20 14:14:05;;;;;;;1.45;1.20;;;;;;;;;;4980556;28;20334;-70
2022/05/20 14:16:34;;;;;;;1.35;1.20;;;;;;;;;;4980682;28;20215;-71
2022/05/20 14:19:26;;;;;;;2.83;1.23;;;;;;;;;;4995788;28;20216;-71
2022/05/20 14:21:53;;;;;;;1.30;1.20;;;;;;;;;;4978069;28;20228;-72
2022/05/20 14:24:19;;;;;;;1.30;1.20;;;;;;;;;;4982047;28;20220;-72
2022/05/20 14:26:47;;;;;;;1.25;1.13;;;;;;;;;;4994318;28;20227;-73
2022/05/20 14:29:14;;;;;;;1.30;1.13;;;;;;;;;;4993771;28;20221;-73
2022/05/20 14:31:54;;;;;;;1.80;1.20;;;;;;;;;;5009002;28;20224;-73
2022/05/20 14:34:27;;;;;;;1.92;1.27;;;;;;;;;;4993913;28;20212;-70
2022/05/20 14:36:54;;;;;;;1.30;1.20;;;;;;;;;;4976626;28;20694;-71
2022/05/20 14:39:24;;;;;;;3.83;1.40;;;;;;;;;;4992112;28;20220;-71
2022/05/20 14:42:02;;;;;;;1.20;1.10;;;;;;;;;;4977139;28;20262;-71
2022/05/20 14:44:28;;;;;;;1.48;1.20;;;;;;;;;;4989959;28;20672;-72
2022/05/20 14:47:15;;;;;;;6.53;1.42;;;;;;;;;;4979833;28;20221;-72
2022/05/20 14:49:55;;;;;;;1.25;1.15;;;;;;;;;;5008219;28;20317;-72
2022/05/20 14:52:32;;;;;;;1.92;1.33;;;;;;;;;;5002472;28;20224;-70
2022/05/20 14:54:58;;;;;;;1.75;1.40;;;;;;;;;;4995366;28;20216;-74
2022/05/20 14:57:34;;;;;;;1.83;1.40;;;;;;;;;;4978215;28;20231;-72
2022/05/20 15:00:08;;;;;;;2.38;1.10;;;;;;;;;;4993825;28;20813;-72
2022/05/20 15:02:34;;;;;;;1.35;1.25;;;;;;;;;;4984573;28;20220;-73
2022/05/20 15:05:01;;;;;;;1.40;1.30;;;;;;;;;;4981126;28;20249;-73
2022/05/20 15:07:27;;;;;;;1.30;1.25;;;;;;;;;;5018985;28;20216;-73
2022/05/20 15:09:53;;;;;;;1.42;1.25;;;;;;;;;;5001760;28;20701;-73
2022/05/20 15:12:21;;;;;;;1.60;1.33;;;;;;;;;;4981500;28;20218;-73
2022/05/20 15:14:48;;;;;;;1.90;1.30;;;;;;;;;;5008238;28;20236;-73
2022/05/20 15:17:17;;;;;;;1.27;1.17;;;;;;;;;;5013332;28;20243;-73
2022/05/20 15:19:44;;;;;;;1.33;1.05;;;;;;;;;;4984782;28;20256;-72
2022/05/20 15:22:11;;;;;;;1.30;1.20;;;;;;;;;;4995922;28;20686;-72
2022/05/20 15:24:36;;;;;;;1.38;1.08;;;;;;;;;;4994994;28;20219;-71
2022/05/20 15:27:02;;;;;;;1.55;1.35;;;;;;;;;;5001244;28;20224;-71
2022/05/20 15:29:30;;;;;;;1.50;1.30;;;;;;;;;;5014990;28;20213;-72
2022/05/20 15:34:55;;;;;;;1.65;1.52;;;;;;;;;;4986587;28;20236;-71
2022/05/20 15:37:25;;;;;;;1.33;1.23;;;;;;;;;;4999195;28;20639;-72
2022/05/20 15:40:00;;;;;;;1.30;1.20;;;;;;;;;;5010691;28;20633;-73
2022/05/20 15:42:26;;;;;;;1.42;1.27;;;;;;;;;;4989679;28;20212;-73
2022/05/20 15:44:54;;;;;;;2.00;1.45;;;;;;;;;;5004071;28;20712;-73
2022/05/20 15:47:23;;;;;;;2.13;1.35;;;;;;;;;;4979128;28;20737;-72
2022/05/20 15:49:49;;;;;;;1.80;1.45;;;;;;;;;;5007315;28;20227;-73